sensor_id;sensor_type;location;lat;lon;timestamp;P1;durP1;ratioP1;P2;durP2;ratioP2
25922;SDS011;13725;51.170;4.442;2023-06-14T00:01:46;8.68;;;5.95;;
25922;SDS011;13725;51.170;4.442;2023-06-14T00:04:13;9.93;;;6.00;;
25922;SDS011;13725;51.170;4.442;2023-06-14T00:06:42;8.48;;;5.93;;
25922;SDS011;13725;51.170;4.442;2023-06-14T00:09:10;8.10;;;5.22;;
25922;SDS011;13725;51.170;4.442;2023-06-14T00:11:38;7.70;;;5.68;;
25922;SDS011;13725;51.170;4.442;2023-06-14T00:14:04;11.07;;;6.60;;
25922;SDS011;13725;51.170;4.442;2023-06-14T00:16:30;9.48;;;6.22;;
25922;SDS011;13725;51.170;4.442;2023-06-14T00:18:59;10.75;;;6.50;;
25922;SDS011;13725;51.170;4.442;2023-06-14T00:21:25;12.77;;;5.97;;
25922;SDS011;13725;51.170;4.442;2023-06-14T00:23:53;10.23;;;5.85;;
25922;SDS011;13725;51.170;4.442;2023-06-14T00:26:19;10.27;;;6.57;;
25922;SDS011;13725;51.170;4.442;2023-06-14T00:28:45;15.13;;;6.35;;
25922;SDS011;13725;51.170;4.442;2023-06-14T00:31:11;13.55;;;5.80;;
25922;SDS011;13725;51.170;4.442;2023-06-14T00:33:36;11.43;;;6.47;;
25922;SDS011;13725;51.170;4.442;2023-06-14T00:36:05;10.55;;;6.93;;
25922;SDS011;13725;51.170;4.442;2023-06-14T00:38:30;13.05;;;6.78;;
25922;SDS011;13725;51.170;4.442;2023-06-14T00:40:57;13.07;;;6.95;;
25922;SDS011;13725;51.170;4.442;2023-06-14T00:43:23;9.05;;;6.20;;
25922;SDS011;13725;51.170;4.442;2023-06-14T00:45:48;8.57;;;6.82;;
25922;SDS011;13725;51.170;4.442;2023-06-14T00:48:16;9.38;;;6.47;;
25922;SDS011;13725;51.170;4.442;2023-06-14T00:50:42;7.63;;;5.95;;
25922;SDS011;13725;51.170;4.442;2023-06-14T00:53:14;11.32;;;6.68;;
25922;SDS011;13725;51.170;4.442;2023-06-14T00:55:40;10.85;;;6.70;;
25922;SDS011;13725;51.170;4.442;2023-06-14T00:58:06;13.93;;;6.63;;
25922;SDS011;13725;51.170;4.442;2023-06-14T01:00:33;10.02;;;6.57;;
25922;SDS011;13725;51.170;4.442;2023-06-14T01:02:59;9.85;;;6.70;;
25922;SDS011;13725;51.170;4.442;2023-06-14T01:05:26;11.82;;;6.63;;
25922;SDS011;13725;51.170;4.442;2023-06-14T01:13:50;12.50;;;6.72;;
25922;SDS011;13725;51.170;4.442;2023-06-14T01:16:21;11.02;;;6.40;;
25922;SDS011;13725;51.170;4.442;2023-06-14T01:18:47;9.82;;;6.57;;
25922;SDS011;13725;51.170;4.442;2023-06-14T01:21:24;8.98;;;6.38;;
25922;SDS011;13725;51.170;4.442;2023-06-14T01:23:51;12.63;;;6.10;;
25922;SDS011;13725;51.170;4.442;2023-06-14T01:26:21;8.98;;;6.50;;
25922;SDS011;13725;51.170;4.442;2023-06-14T01:28:48;11.38;;;6.25;;
25922;SDS011;13725;51.170;4.442;2023-06-14T01:31:22;12.95;;;6.28;;
25922;SDS011;13725;51.170;4.442;2023-06-14T01:33:49;13.85;;;5.45;;
25922;SDS011;13725;51.170;4.442;2023-06-14T01:36:16;9.18;;;6.55;;
25922;SDS011;13725;51.170;4.442;2023-06-14T01:38:44;9.35;;;5.97;;
25922;SDS011;13725;51.170;4.442;2023-06-14T01:41:10;9.07;;;5.88;;
25922;SDS011;13725;51.170;4.442;2023-06-14T01:43:37;8.95;;;6.43;;
25922;SDS011;13725;51.170;4.442;2023-06-14T01:46:05;10.65;;;6.20;;
25922;SDS011;13725;51.170;4.442;2023-06-14T01:48:31;11.80;;;6.03;;
25922;SDS011;13725;51.170;4.442;2023-06-14T01:50:57;9.10;;;6.28;;
25922;SDS011;13725;51.170;4.442;2023-06-14T01:53:23;9.38;;;5.90;;
25922;SDS011;13725;51.170;4.442;2023-06-14T01:55:48;9.48;;;6.72;;
25922;SDS011;13725;51.170;4.442;2023-06-14T01:58:14;9.40;;;5.80;;
25922;SDS011;13725;51.170;4.442;2023-06-14T02:00:43;11.60;;;5.85;;
25922;SDS011;13725;51.170;4.442;2023-06-14T02:03:10;10.02;;;6.28;;
25922;SDS011;13725;51.170;4.442;2023-06-14T02:05:37;10.20;;;6.25;;
25922;SDS011;13725;51.170;4.442;2023-06-14T02:08:04;10.32;;;5.85;;
25922;SDS011;13725;51.170;4.442;2023-06-14T02:10:30;10.30;;;6.00;;
25922;SDS011;13725;51.170;4.442;2023-06-14T02:12:56;10.98;;;5.95;;
25922;SDS011;13725;51.170;4.442;2023-06-14T02:15:22;11.65;;;6.68;;
25922;SDS011;13725;51.170;4.442;2023-06-14T02:17:49;9.80;;;5.78;;
25922;SDS011;13725;51.170;4.442;2023-06-14T02:20:16;8.27;;;5.57;;
25922;SDS011;13725;51.170;4.442;2023-06-14T02:22:42;8.80;;;5.38;;
25922;SDS011;13725;51.170;4.442;2023-06-14T02:25:08;9.13;;;5.63;;
25922;SDS011;13725;51.170;4.442;2023-06-14T02:27:34;9.18;;;5.65;;
25922;SDS011;13725;51.170;4.442;2023-06-14T02:30:00;10.68;;;5.80;;
25922;SDS011;13725;51.170;4.442;2023-06-14T02:32:26;9.88;;;5.85;;
25922;SDS011;13725;51.170;4.442;2023-06-14T02:34:52;9.50;;;5.10;;
25922;SDS011;13725;51.170;4.442;2023-06-14T02:37:19;8.00;;;5.53;;
25922;SDS011;13725;51.170;4.442;2023-06-14T02:39:45;9.48;;;5.18;;
25922;SDS011;13725;51.170;4.442;2023-06-14T02:42:11;8.88;;;5.72;;
25922;SDS011;13725;51.170;4.442;2023-06-14T02:44:37;9.77;;;5.40;;
25922;SDS011;13725;51.170;4.442;2023-06-14T02:47:03;7.93;;;5.65;;
25922;SDS011;13725;51.170;4.442;2023-06-14T02:49:30;8.95;;;5.63;;
25922;SDS011;13725;51.170;4.442;2023-06-14T02:51:56;10.32;;;6.13;;
25922;SDS011;13725;51.170;4.442;2023-06-14T02:54:22;7.95;;;5.57;;
25922;SDS011;13725;51.170;4.442;2023-06-14T02:56:47;13.65;;;5.97;;
25922;SDS011;13725;51.170;4.442;2023-06-14T02:59:13;7.65;;;5.57;;
25922;SDS011;13725;51.170;4.442;2023-06-14T03:01:40;9.23;;;5.20;;
25922;SDS011;13725;51.170;4.442;2023-06-14T03:04:09;9.00;;;5.10;;
25922;SDS011;13725;51.170;4.442;2023-06-14T03:06:38;11.73;;;5.10;;
25922;SDS011;13725;51.170;4.442;2023-06-14T03:09:05;8.88;;;5.35;;
25922;SDS011;13725;51.170;4.442;2023-06-14T03:11:31;8.50;;;5.25;;
25922;SDS011;13725;51.170;4.442;2023-06-14T03:13:58;8.27;;;5.43;;
25922;SDS011;13725;51.170;4.442;2023-06-14T03:16:26;9.63;;;5.32;;
25922;SDS011;13725;51.170;4.442;2023-06-14T03:18:55;11.05;;;5.45;;
25922;SDS011;13725;51.170;4.442;2023-06-14T03:21:23;7.22;;;4.82;;
25922;SDS011;13725;51.170;4.442;2023-06-14T03:23:50;9.52;;;5.25;;
25922;SDS011;13725;51.170;4.442;2023-06-14T03:26:18;8.95;;;5.47;;
25922;SDS011;13725;51.170;4.442;2023-06-14T03:28:45;8.20;;;5.07;;
25922;SDS011;13725;51.170;4.442;2023-06-14T03:31:12;9.50;;;5.53;;
25922;SDS011;13725;51.170;4.442;2023-06-14T03:33:39;9.63;;;5.32;;
25922;SDS011;13725;51.170;4.442;2023-06-14T03:36:05;12.00;;;5.20;;
25922;SDS011;13725;51.170;4.442;2023-06-14T03:38:32;9.70;;;5.00;;
25922;SDS011;13725;51.170;4.442;2023-06-14T03:40:58;9.10;;;4.88;;
25922;SDS011;13725;51.170;4.442;2023-06-14T03:43:25;11.60;;;5.13;;
25922;SDS011;13725;51.170;4.442;2023-06-14T03:45:52;10.25;;;5.18;;
25922;SDS011;13725;51.170;4.442;2023-06-14T03:48:20;11.27;;;5.43;;
25922;SDS011;13725;51.170;4.442;2023-06-14T03:50:45;9.15;;;5.25;;
25922;SDS011;13725;51.170;4.442;2023-06-14T03:53:12;16.95;;;8.25;;
25922;SDS011;13725;51.170;4.442;2023-06-14T03:55:41;7.72;;;4.97;;
25922;SDS011;13725;51.170;4.442;2023-06-14T03:58:06;8.82;;;5.15;;
25922;SDS011;13725;51.170;4.442;2023-06-14T04:00:35;10.73;;;5.50;;
25922;SDS011;13725;51.170;4.442;2023-06-14T04:03:01;8.98;;;5.40;;
25922;SDS011;13725;51.170;4.442;2023-06-14T04:05:28;6.18;;;4.65;;
25922;SDS011;13725;51.170;4.442;2023-06-14T04:07:55;11.40;;;5.90;;
25922;SDS011;13725;51.170;4.442;2023-06-14T04:10:22;11.10;;;5.70;;
25922;SDS011;13725;51.170;4.442;2023-06-14T04:12:48;11.10;;;5.15;;
25922;SDS011;13725;51.170;4.442;2023-06-14T04:15:16;10.15;;;5.45;;
25922;SDS011;13725;51.170;4.442;2023-06-14T04:17:43;11.63;;;5.22;;
25922;SDS011;13725;51.170;4.442;2023-06-14T04:20:09;13.90;;;6.00;;
25922;SDS011;13725;51.170;4.442;2023-06-14T04:22:35;9.65;;;5.22;;
25922;SDS011;13725;51.170;4.442;2023-06-14T04:25:02;9.65;;;5.18;;
25922;SDS011;13725;51.170;4.442;2023-06-14T04:27:32;12.10;;;5.80;;
25922;SDS011;13725;51.170;4.442;2023-06-14T04:30:00;9.43;;;5.78;;
25922;SDS011;13725;51.170;4.442;2023-06-14T04:32:33;6.85;;;5.25;;
25922;SDS011;13725;51.170;4.442;2023-06-14T04:35:00;16.88;;;5.25;;
25922;SDS011;13725;51.170;4.442;2023-06-14T04:37:30;18.83;;;5.90;;
25922;SDS011;13725;51.170;4.442;2023-06-14T04:39:57;10.90;;;5.50;;
25922;SDS011;13725;51.170;4.442;2023-06-14T04:42:23;14.93;;;5.72;;
25922;SDS011;13725;51.170;4.442;2023-06-14T04:44:51;12.77;;;5.28;;
25922;SDS011;13725;51.170;4.442;2023-06-14T04:47:21;12.98;;;5.93;;
25922;SDS011;13725;51.170;4.442;2023-06-14T04:49:47;10.50;;;6.25;;
25922;SDS011;13725;51.170;4.442;2023-06-14T04:52:12;9.88;;;5.32;;
25922;SDS011;13725;51.170;4.442;2023-06-14T04:54:41;7.65;;;5.22;;
25922;SDS011;13725;51.170;4.442;2023-06-14T04:57:09;10.73;;;5.70;;
25922;SDS011;13725;51.170;4.442;2023-06-14T04:59:40;13.70;;;6.55;;
25922;SDS011;13725;51.170;4.442;2023-06-14T05:02:07;10.32;;;6.10;;
25922;SDS011;13725;51.170;4.442;2023-06-14T05:04:34;17.65;;;6.38;;
25922;SDS011;13725;51.170;4.442;2023-06-14T05:06:59;10.07;;;5.47;;
25922;SDS011;13725;51.170;4.442;2023-06-14T05:09:27;10.45;;;5.72;;
25922;SDS011;13725;51.170;4.442;2023-06-14T05:11:53;12.00;;;5.38;;
25922;SDS011;13725;51.170;4.442;2023-06-14T05:14:20;12.18;;;5.70;;
25922;SDS011;13725;51.170;4.442;2023-06-14T05:16:48;12.30;;;6.05;;
25922;SDS011;13725;51.170;4.442;2023-06-14T05:19:14;9.23;;;5.63;;
25922;SDS011;13725;51.170;4.442;2023-06-14T05:21:40;14.60;;;6.00;;
25922;SDS011;13725;51.170;4.442;2023-06-14T05:24:05;9.65;;;5.95;;
25922;SDS011;13725;51.170;4.442;2023-06-14T05:26:32;11.60;;;6.28;;
25922;SDS011;13725;51.170;4.442;2023-06-14T05:28:58;12.50;;;6.32;;
25922;SDS011;13725;51.170;4.442;2023-06-14T05:31:26;12.10;;;5.53;;
25922;SDS011;13725;51.170;4.442;2023-06-14T05:33:53;12.98;;;5.60;;
25922;SDS011;13725;51.170;4.442;2023-06-14T05:36:19;9.95;;;6.53;;
25922;SDS011;13725;51.170;4.442;2023-06-14T05:38:46;11.38;;;6.10;;
25922;SDS011;13725;51.170;4.442;2023-06-14T05:41:13;14.55;;;6.22;;
25922;SDS011;13725;51.170;4.442;2023-06-14T05:43:38;11.88;;;6.88;;
25922;SDS011;13725;51.170;4.442;2023-06-14T05:46:05;9.48;;;6.43;;
25922;SDS011;13725;51.170;4.442;2023-06-14T05:48:31;16.45;;;6.88;;
25922;SDS011;13725;51.170;4.442;2023-06-14T05:50:57;17.42;;;7.47;;
25922;SDS011;13725;51.170;4.442;2023-06-14T05:53:23;12.48;;;6.88;;
25922;SDS011;13725;51.170;4.442;2023-06-14T05:55:50;13.10;;;6.63;;
25922;SDS011;13725;51.170;4.442;2023-06-14T05:58:18;16.20;;;6.68;;
25922;SDS011;13725;51.170;4.442;2023-06-14T06:00:45;11.32;;;6.75;;
25922;SDS011;13725;51.170;4.442;2023-06-14T06:03:11;12.73;;;6.45;;
25922;SDS011;13725;51.170;4.442;2023-06-14T06:05:38;12.73;;;7.05;;
25922;SDS011;13725;51.170;4.442;2023-06-14T06:08:04;10.73;;;6.78;;
25922;SDS011;13725;51.170;4.442;2023-06-14T06:10:31;9.05;;;6.18;;
25922;SDS011;13725;51.170;4.442;2023-06-14T06:12:57;10.75;;;7.00;;
25922;SDS011;13725;51.170;4.442;2023-06-14T06:15:23;12.85;;;7.47;;
25922;SDS011;13725;51.170;4.442;2023-06-14T06:17:49;11.50;;;6.90;;
25922;SDS011;13725;51.170;4.442;2023-06-14T06:20:16;13.43;;;7.32;;
25922;SDS011;13725;51.170;4.442;2023-06-14T06:22:42;10.77;;;6.97;;
25922;SDS011;13725;51.170;4.442;2023-06-14T06:25:08;14.35;;;6.32;;
25922;SDS011;13725;51.170;4.442;2023-06-14T06:27:34;11.63;;;6.05;;
25922;SDS011;13725;51.170;4.442;2023-06-14T06:30:03;12.95;;;5.72;;
25922;SDS011;13725;51.170;4.442;2023-06-14T06:32:29;10.88;;;6.00;;
25922;SDS011;13725;51.170;4.442;2023-06-14T06:34:54;13.73;;;6.18;;
25922;SDS011;13725;51.170;4.442;2023-06-14T06:37:20;11.52;;;5.60;;
25922;SDS011;13725;51.170;4.442;2023-06-14T06:39:46;9.50;;;5.53;;
25922;SDS011;13725;51.170;4.442;2023-06-14T06:42:12;13.52;;;6.65;;
25922;SDS011;13725;51.170;4.442;2023-06-14T06:44:42;13.60;;;6.57;;
25922;SDS011;13725;51.170;4.442;2023-06-14T06:47:07;9.65;;;5.75;;
25922;SDS011;13725;51.170;4.442;2023-06-14T06:49:35;8.63;;;5.53;;
25922;SDS011;13725;51.170;4.442;2023-06-14T06:52:02;9.30;;;5.45;;
25922;SDS011;13725;51.170;4.442;2023-06-14T06:54:30;11.40;;;5.32;;
25922;SDS011;13725;51.170;4.442;2023-06-14T06:56:56;7.65;;;5.70;;
25922;SDS011;13725;51.170;4.442;2023-06-14T06:59:22;11.00;;;5.45;;
25922;SDS011;13725;51.170;4.442;2023-06-14T07:01:48;11.02;;;5.60;;
25922;SDS011;13725;51.170;4.442;2023-06-14T07:04:13;10.45;;;5.80;;
25922;SDS011;13725;51.170;4.442;2023-06-14T07:06:39;9.75;;;5.80;;
25922;SDS011;13725;51.170;4.442;2023-06-14T07:09:05;12.38;;;5.18;;
25922;SDS011;13725;51.170;4.442;2023-06-14T07:11:33;11.07;;;5.50;;
25922;SDS011;13725;51.170;4.442;2023-06-14T07:13:59;16.52;;;6.22;;
25922;SDS011;13725;51.170;4.442;2023-06-14T07:16:25;8.45;;;5.45;;
25922;SDS011;13725;51.170;4.442;2023-06-14T07:18:51;8.45;;;5.00;;
25922;SDS011;13725;51.170;4.442;2023-06-14T07:21:17;8.30;;;5.30;;
25922;SDS011;13725;51.170;4.442;2023-06-14T07:23:43;16.73;;;5.88;;
25922;SDS011;13725;51.170;4.442;2023-06-14T07:26:09;8.73;;;5.28;;
25922;SDS011;13725;51.170;4.442;2023-06-14T07:28:34;6.53;;;4.88;;
25922;SDS011;13725;51.170;4.442;2023-06-14T07:31:01;8.25;;;5.32;;
25922;SDS011;13725;51.170;4.442;2023-06-14T07:33:28;9.90;;;5.38;;
25922;SDS011;13725;51.170;4.442;2023-06-14T07:35:53;8.75;;;4.88;;
25922;SDS011;13725;51.170;4.442;2023-06-14T07:38:19;7.75;;;4.70;;
25922;SDS011;13725;51.170;4.442;2023-06-14T07:40:45;10.18;;;4.80;;
25922;SDS011;13725;51.170;4.442;2023-06-14T07:43:11;16.50;;;5.15;;
25922;SDS011;13725;51.170;4.442;2023-06-14T07:45:37;14.20;;;5.57;;
25922;SDS011;13725;51.170;4.442;2023-06-14T07:48:04;7.60;;;4.82;;
25922;SDS011;13725;51.170;4.442;2023-06-14T07:50:29;12.70;;;5.65;;
25922;SDS011;13725;51.170;4.442;2023-06-14T07:52:55;13.15;;;5.00;;
25922;SDS011;13725;51.170;4.442;2023-06-14T07:55:21;11.63;;;4.90;;
25922;SDS011;13725;51.170;4.442;2023-06-14T07:57:47;12.45;;;5.32;;
25922;SDS011;13725;51.170;4.442;2023-06-14T08:00:13;13.65;;;4.95;;
25922;SDS011;13725;51.170;4.442;2023-06-14T08:02:43;9.25;;;4.80;;
25922;SDS011;13725;51.170;4.442;2023-06-14T08:05:10;10.93;;;4.70;;
25922;SDS011;13725;51.170;4.442;2023-06-14T08:07:36;9.98;;;4.80;;
25922;SDS011;13725;51.170;4.442;2023-06-14T08:10:04;6.25;;;4.35;;
25922;SDS011;13725;51.170;4.442;2023-06-14T08:12:30;8.85;;;4.88;;
25922;SDS011;13725;51.170;4.442;2023-06-14T08:14:56;9.18;;;5.22;;
25922;SDS011;13725;51.170;4.442;2023-06-14T08:17:22;9.77;;;5.10;;
25922;SDS011;13725;51.170;4.442;2023-06-14T08:19:47;9.77;;;5.28;;
25922;SDS011;13725;51.170;4.442;2023-06-14T08:22:13;8.32;;;5.22;;
25922;SDS011;13725;51.170;4.442;2023-06-14T08:24:39;9.27;;;5.22;;
25922;SDS011;13725;51.170;4.442;2023-06-14T08:27:06;10.13;;;4.90;;
25922;SDS011;13725;51.170;4.442;2023-06-14T08:29:31;8.68;;;4.70;;
25922;SDS011;13725;51.170;4.442;2023-06-14T08:31:57;7.53;;;5.20;;
25922;SDS011;13725;51.170;4.442;2023-06-14T08:34:23;10.90;;;5.00;;
25922;SDS011;13725;51.170;4.442;2023-06-14T08:36:52;11.65;;;4.95;;
25922;SDS011;13725;51.170;4.442;2023-06-14T08:39:18;7.93;;;5.20;;
25922;SDS011;13725;51.170;4.442;2023-06-14T08:41:45;13.07;;;5.93;;
25922;SDS011;13725;51.170;4.442;2023-06-14T08:44:13;9.05;;;5.22;;
25922;SDS011;13725;51.170;4.442;2023-06-14T08:46:40;8.60;;;5.03;;
25922;SDS011;13725;51.170;4.442;2023-06-14T08:49:07;8.13;;;4.63;;
25922;SDS011;13725;51.170;4.442;2023-06-14T08:51:36;11.10;;;4.85;;
25922;SDS011;13725;51.170;4.442;2023-06-14T08:54:03;15.23;;;5.05;;
25922;SDS011;13725;51.170;4.442;2023-06-14T08:56:30;6.55;;;4.68;;
25922;SDS011;13725;51.170;4.442;2023-06-14T08:58:57;7.47;;;4.78;;
25922;SDS011;13725;51.170;4.442;2023-06-14T09:01:28;8.07;;;4.43;;
25922;SDS011;13725;51.170;4.442;2023-06-14T09:03:56;10.75;;;5.80;;
25922;SDS011;13725;51.170;4.442;2023-06-14T09:06:22;10.75;;;4.78;;
25922;SDS011;13725;51.170;4.442;2023-06-14T09:08:50;9.77;;;4.88;;
25922;SDS011;13725;51.170;4.442;2023-06-14T09:11:18;6.47;;;4.55;;
25922;SDS011;13725;51.170;4.442;2023-06-14T09:13:48;7.38;;;5.32;;
25922;SDS011;13725;51.170;4.442;2023-06-14T09:16:15;8.80;;;4.25;;
25922;SDS011;13725;51.170;4.442;2023-06-14T09:18:44;9.80;;;5.32;;
25922;SDS011;13725;51.170;4.442;2023-06-14T09:21:16;9.25;;;4.97;;
25922;SDS011;13725;51.170;4.442;2023-06-14T09:23:43;9.23;;;4.90;;
25922;SDS011;13725;51.170;4.442;2023-06-14T09:26:13;12.40;;;5.22;;
25922;SDS011;13725;51.170;4.442;2023-06-14T09:28:44;8.02;;;4.03;;
25922;SDS011;13725;51.170;4.442;2023-06-14T09:31:14;7.88;;;4.18;;
25922;SDS011;13725;51.170;4.442;2023-06-14T09:33:44;11.63;;;4.40;;
25922;SDS011;13725;51.170;4.442;2023-06-14T09:36:23;10.80;;;4.20;;
25922;SDS011;13725;51.170;4.442;2023-06-14T09:38:54;11.93;;;4.57;;
25922;SDS011;13725;51.170;4.442;2023-06-14T09:46:32;6.50;;;4.05;;
25922;SDS011;13725;51.170;4.442;2023-06-14T09:48:58;11.40;;;4.05;;
25922;SDS011;13725;51.170;4.442;2023-06-14T09:51:26;6.78;;;3.92;;
25922;SDS011;13725;51.170;4.442;2023-06-14T09:53:53;6.72;;;3.85;;
25922;SDS011;13725;51.170;4.442;2023-06-14T09:56:27;8.30;;;4.03;;
25922;SDS011;13725;51.170;4.442;2023-06-14T09:58:55;5.85;;;4.10;;
25922;SDS011;13725;51.170;4.442;2023-06-14T10:01:25;9.63;;;3.90;;
25922;SDS011;13725;51.170;4.442;2023-06-14T10:03:59;4.90;;;3.40;;
25922;SDS011;13725;51.170;4.442;2023-06-14T10:06:28;6.53;;;3.63;;
25922;SDS011;13725;51.170;4.442;2023-06-14T10:08:58;6.50;;;3.40;;
25922;SDS011;13725;51.170;4.442;2023-06-14T10:11:25;7.07;;;3.58;;
25922;SDS011;13725;51.170;4.442;2023-06-14T10:13:52;6.40;;;3.60;;
25922;SDS011;13725;51.170;4.442;2023-06-14T10:24:30;8.15;;;3.25;;
25922;SDS011;13725;51.170;4.442;2023-06-14T10:26:58;7.65;;;3.15;;
25922;SDS011;13725;51.170;4.442;2023-06-14T10:29:26;7.13;;;3.55;;
25922;SDS011;13725;51.170;4.442;2023-06-14T10:31:57;6.60;;;3.65;;
25922;SDS011;13725;51.170;4.442;2023-06-14T10:34:24;8.05;;;2.85;;
25922;SDS011;13725;51.170;4.442;2023-06-14T10:37:02;10.70;;;3.30;;
25922;SDS011;13725;51.170;4.442;2023-06-14T10:39:29;6.65;;;3.30;;
25922;SDS011;13725;51.170;4.442;2023-06-14T10:41:56;6.00;;;3.00;;
25922;SDS011;13725;51.170;4.442;2023-06-14T10:46:55;4.28;;;2.95;;
25922;SDS011;13725;51.170;4.442;2023-06-14T10:49:39;3.80;;;3.33;;
25922;SDS011;13725;51.170;4.442;2023-06-14T10:52:14;6.82;;;3.30;;
25922;SDS011;13725;51.170;4.442;2023-06-14T10:57:34;7.43;;;2.92;;
25922;SDS011;13725;51.170;4.442;2023-06-14T11:00:08;7.25;;;3.83;;
25922;SDS011;13725;51.170;4.442;2023-06-14T11:05:25;8.30;;;3.53;;
25922;SDS011;13725;51.170;4.442;2023-06-14T11:10:43;5.30;;;3.20;;
25922;SDS011;13725;51.170;4.442;2023-06-14T11:13:12;7.82;;;3.08;;
25922;SDS011;13725;51.170;4.442;2023-06-14T11:15:43;8.00;;;3.53;;
25922;SDS011;13725;51.170;4.442;2023-06-14T11:18:11;8.70;;;3.38;;
25922;SDS011;13725;51.170;4.442;2023-06-14T11:20:39;5.10;;;3.05;;
25922;SDS011;13725;51.170;4.442;2023-06-14T11:23:05;10.65;;;3.20;;
25922;SDS011;13725;51.170;4.442;2023-06-14T11:25:32;6.18;;;3.20;;
25922;SDS011;13725;51.170;4.442;2023-06-14T11:27:58;4.85;;;2.90;;
25922;SDS011;13725;51.170;4.442;2023-06-14T11:30:24;5.82;;;3.03;;
25922;SDS011;13725;51.170;4.442;2023-06-14T11:32:53;6.68;;;3.20;;
25922;SDS011;13725;51.170;4.442;2023-06-14T11:35:23;5.15;;;2.80;;
25922;SDS011;13725;51.170;4.442;2023-06-14T11:37:53;9.75;;;3.40;;
25922;SDS011;13725;51.170;4.442;2023-06-14T11:40:22;6.40;;;2.67;;
25922;SDS011;13725;51.170;4.442;2023-06-14T11:42:59;8.07;;;3.40;;
25922;SDS011;13725;51.170;4.442;2023-06-14T11:45:26;7.72;;;3.05;;
25922;SDS011;13725;51.170;4.442;2023-06-14T11:47:53;6.18;;;3.00;;
25922;SDS011;13725;51.170;4.442;2023-06-14T11:50:21;7.03;;;2.92;;
25922;SDS011;13725;51.170;4.442;2023-06-14T11:52:58;6.13;;;2.95;;
25922;SDS011;13725;51.170;4.442;2023-06-14T11:55:32;4.80;;;2.60;;
25922;SDS011;13725;51.170;4.442;2023-06-14T11:58:05;6.88;;;2.65;;
25922;SDS011;13725;51.170;4.442;2023-06-14T12:00:31;7.15;;;2.50;;
25922;SDS011;13725;51.170;4.442;2023-06-14T12:02:57;5.65;;;3.03;;
25922;SDS011;13725;51.170;4.442;2023-06-14T12:05:24;7.47;;;2.72;;
25922;SDS011;13725;51.170;4.442;2023-06-14T12:07:57;8.75;;;2.70;;
25922;SDS011;13725;51.170;4.442;2023-06-14T12:10:25;6.75;;;2.85;;
25922;SDS011;13725;51.170;4.442;2023-06-14T12:12:56;8.52;;;2.30;;
25922;SDS011;13725;51.170;4.442;2023-06-14T12:15:23;6.00;;;2.80;;
25922;SDS011;13725;51.170;4.442;2023-06-14T12:17:50;7.53;;;2.45;;
25922;SDS011;13725;51.170;4.442;2023-06-14T12:20:17;5.53;;;2.65;;
25922;SDS011;13725;51.170;4.442;2023-06-14T12:22:53;7.65;;;2.78;;
25922;SDS011;13725;51.170;4.442;2023-06-14T12:25:30;7.85;;;2.30;;
25922;SDS011;13725;51.170;4.442;2023-06-14T12:28:03;6.00;;;2.72;;
25922;SDS011;13725;51.170;4.442;2023-06-14T12:30:30;8.30;;;2.60;;
25922;SDS011;13725;51.170;4.442;2023-06-14T12:32:56;6.00;;;2.40;;
25922;SDS011;13725;51.170;4.442;2023-06-14T12:35:22;7.40;;;2.42;;
25922;SDS011;13725;51.170;4.442;2023-06-14T12:37:48;3.08;;;2.20;;
25922;SDS011;13725;51.170;4.442;2023-06-14T12:40:13;6.25;;;2.20;;
25922;SDS011;13725;51.170;4.442;2023-06-14T12:42:40;5.35;;;2.78;;
25922;SDS011;13725;51.170;4.442;2023-06-14T12:45:08;7.00;;;2.80;;
25922;SDS011;13725;51.170;4.442;2023-06-14T12:47:35;5.00;;;2.75;;
25922;SDS011;13725;51.170;4.442;2023-06-14T12:50:01;6.10;;;2.30;;
25922;SDS011;13725;51.170;4.442;2023-06-14T12:52:28;3.05;;;2.00;;
25922;SDS011;13725;51.170;4.442;2023-06-14T12:54:54;5.82;;;2.40;;
25922;SDS011;13725;51.170;4.442;2023-06-14T12:57:20;4.28;;;2.13;;
25922;SDS011;13725;51.170;4.442;2023-06-14T12:59:45;8.13;;;2.20;;
25922;SDS011;13725;51.170;4.442;2023-06-14T13:02:17;5.10;;;2.10;;
25922;SDS011;13725;51.170;4.442;2023-06-14T13:04:46;3.00;;;1.90;;
25922;SDS011;13725;51.170;4.442;2023-06-14T13:07:12;3.88;;;1.92;;
25922;SDS011;13725;51.170;4.442;2023-06-14T13:09:41;7.22;;;1.90;;
25922;SDS011;13725;51.170;4.442;2023-06-14T13:12:07;4.18;;;1.77;;
25922;SDS011;13725;51.170;4.442;2023-06-14T13:14:36;7.80;;;1.90;;
25922;SDS011;13725;51.170;4.442;2023-06-14T13:17:02;8.18;;;1.85;;
25922;SDS011;13725;51.170;4.442;2023-06-14T13:19:28;5.07;;;1.70;;
25922;SDS011;13725;51.170;4.442;2023-06-14T13:21:54;10.40;;;2.28;;
25922;SDS011;13725;51.170;4.442;2023-06-14T13:24:19;4.85;;;1.77;;
25922;SDS011;13725;51.170;4.442;2023-06-14T13:26:45;2.63;;;1.63;;
25922;SDS011;13725;51.170;4.442;2023-06-14T13:29:11;2.17;;;1.48;;
25922;SDS011;13725;51.170;4.442;2023-06-14T13:31:37;2.28;;;1.58;;
25922;SDS011;13725;51.170;4.442;2023-06-14T13:34:02;2.30;;;1.63;;
25922;SDS011;13725;51.170;4.442;2023-06-14T13:36:29;2.80;;;1.25;;
25922;SDS011;13725;51.170;4.442;2023-06-14T13:38:55;3.63;;;1.48;;
25922;SDS011;13725;51.170;4.442;2023-06-14T13:41:21;3.88;;;1.35;;
25922;SDS011;13725;51.170;4.442;2023-06-14T13:43:47;2.05;;;1.23;;
25922;SDS011;13725;51.170;4.442;2023-06-14T13:46:12;2.33;;;1.30;;
25922;SDS011;13725;51.170;4.442;2023-06-14T13:48:38;3.13;;;1.67;;
25922;SDS011;13725;51.170;4.442;2023-06-14T13:51:04;3.85;;;1.67;;
25922;SDS011;13725;51.170;4.442;2023-06-14T13:53:30;1.52;;;1.30;;
25922;SDS011;13725;51.170;4.442;2023-06-14T13:55:56;4.97;;;1.77;;
25922;SDS011;13725;51.170;4.442;2023-06-14T13:58:22;2.72;;;1.63;;
25922;SDS011;13725;51.170;4.442;2023-06-14T14:00:49;4.05;;;1.60;;
25922;SDS011;13725;51.170;4.442;2023-06-14T14:03:15;3.08;;;1.20;;
25922;SDS011;13725;51.170;4.442;2023-06-14T14:05:40;3.03;;;1.70;;
25922;SDS011;13725;51.170;4.442;2023-06-14T14:08:06;2.53;;;1.55;;
25922;SDS011;13725;51.170;4.442;2023-06-14T14:10:33;3.40;;;1.60;;
25922;SDS011;13725;51.170;4.442;2023-06-14T14:12:59;2.85;;;2.20;;
25922;SDS011;13725;51.170;4.442;2023-06-14T14:15:25;3.08;;;1.70;;
25922;SDS011;13725;51.170;4.442;2023-06-14T14:17:51;5.15;;;1.70;;
25922;SDS011;13725;51.170;4.442;2023-06-14T14:20:19;2.63;;;1.35;;
25922;SDS011;13725;51.170;4.442;2023-06-14T14:22:44;6.53;;;1.77;;
25922;SDS011;13725;51.170;4.442;2023-06-14T14:25:10;2.67;;;1.80;;
25922;SDS011;13725;51.170;4.442;2023-06-14T14:27:36;4.47;;;1.50;;
25922;SDS011;13725;51.170;4.442;2023-06-14T14:30:03;2.22;;;1.67;;
25922;SDS011;13725;51.170;4.442;2023-06-14T14:32:29;7.05;;;1.65;;
25922;SDS011;13725;51.170;4.442;2023-06-14T14:34:55;8.52;;;2.00;;
25922;SDS011;13725;51.170;4.442;2023-06-14T14:37:21;5.40;;;1.90;;
25922;SDS011;13725;51.170;4.442;2023-06-14T14:39:46;2.28;;;1.60;;
25922;SDS011;13725;51.170;4.442;2023-06-14T14:42:12;3.88;;;1.50;;
25922;SDS011;13725;51.170;4.442;2023-06-14T14:44:40;8.63;;;2.05;;
25922;SDS011;13725;51.170;4.442;2023-06-14T14:47:06;6.13;;;1.65;;
25922;SDS011;13725;51.170;4.442;2023-06-14T14:49:32;7.10;;;1.90;;
25922;SDS011;13725;51.170;4.442;2023-06-14T14:51:57;5.72;;;1.88;;
25922;SDS011;13725;51.170;4.442;2023-06-14T14:54:23;5.85;;;1.70;;
25922;SDS011;13725;51.170;4.442;2023-06-14T14:56:50;3.70;;;2.03;;
25922;SDS011;13725;51.170;4.442;2023-06-14T14:59:16;5.50;;;1.70;;
25922;SDS011;13725;51.170;4.442;2023-06-14T15:01:43;4.60;;;2.20;;
25922;SDS011;13725;51.170;4.442;2023-06-14T15:04:09;2.65;;;1.50;;
25922;SDS011;13725;51.170;4.442;2023-06-14T15:06:35;1.55;;;1.40;;
25922;SDS011;13725;51.170;4.442;2023-06-14T15:09:01;8.02;;;1.70;;
25922;SDS011;13725;51.170;4.442;2023-06-14T15:11:27;4.38;;;1.90;;
25922;SDS011;13725;51.170;4.442;2023-06-14T15:13:53;3.22;;;1.60;;